Aérodrome :
LOGIN :

S'inscrire | Disclaimer

   EN    FR    IT 

 










Légende :    VFR   VFR Marginal   IFR   IFR Intensif   IFR Très Intensif
Visi : 
Plafond : 
>= 8 km
>= 3000ft
5 à 8 km
1000 à 3000 ft
1500m à 5 km
500 à 1000 ft
800 à 1500m
200 à 500 ft
< 800m
< 200 ft
Symboles :   Orages  Brouillard  Fortes neiges  Fortes précipitations  Vent > 20 kt
SIGMETs :   Divers  Orages  Givrage  Turbulence  Onde Orograph.  Cendres Volcan.







- Altitude de l'aérodrome : 93 ft
- Code IATA : XRY


LEJR - Jerez

DERNIER METAR :
  • 181930Z 23003KT 130V290 9999 FEW030 12/09 Q1019

METARs EXPIRÉS :
  • 181900Z 28006KT 9999 FEW030 14/10 Q1019
  • 181830Z 30003KT 260V320 9999 FEW030 15/09 Q1019
  • 181800Z 31004KT 9999 FEW030 16/10 Q1018
  • 181730Z 31006KT 9999 FEW025 17/10 Q1018
  • 181700Z 31006G16KT 290V020 9999 FEW025 17/10 Q1018

TAF TAF LEJR
Valide du 18 à 18h jusqu'au 19 à 18h UTC


181700Z 1818/1918 VRB03KT 9999 FEW025 TX20/1915Z TN06/1907Z
PROB40
TEMPO 1900/1909 4000 BR BKN010
Pas de NOTAMs connus pour ce terrain.



MET'MAP, la Météo Aéronautique d'un coup d'oeil ! - Copyright ORBIFLY Décembre 2007 - Disclaimer

ORBIFLY MET'MAP TEAM :

Programmation & Développement : Alexandra Zaïnal
Conception & Développement : Baudouin d'Aumeries
Co-Programmation & Développement : Marc-Olivier Méhu
Soutien technique & logistique : Manuel Goepfert

Contact : metmap@orbifly.com




SOURCES & CREDITS :

   NOAA